Du har inga inställningar för hoppväder.nu

Hoppväder.nu

Senast uppdaterat 00:19

UTC-tid

2019-10-20 kl. 22:19


Sol och måne

Solen går upp 7:44 och går ner 18:17 (beräknade cirkatider)
Nästa fullmåne blir om 22 dagar (2019-11-12)

METAR

ESSV (Visby)
(29 minuter sedan)
ESSV 202150Z AUTO 25004KT 1700 OVC002/// 11/11 Q1014=















TAF

ESSV (Visby)
(259 minuter sedan)
ESSV AMD 201800Z 2018/2022 22005KT 0300 FG VV002 PROB40 2018/2022 5000 SCT002 BKN030=





Kodnycklar till TAF och METAR






LHP

(Visby är område H2a i Sydöstra delen)

Prognos är inte uppdaterad




Spotting

Hur fungerar spotthjälpen och Vindkartan?

Markvind är ca 0 m/s.



Vindkartan

Senast uppdaterad 00:19




All data kommer från LFV.se